createdAt,value
2019-03-29T07:35:48.471Z,0.00
2019-03-29T07:44:21.765Z,0.00
2019-03-29T07:51:29.504Z,0.00
2019-03-29T07:55:01.465Z,0.00
2019-03-29T08:07:34.446Z,0.00
2019-03-29T08:11:28.974Z,0.00
2019-03-29T08:12:18.531Z,0.00
2019-03-29T08:47:52.546Z,0.0000
2019-03-29T08:47:54.273Z,21.0472
2019-03-29T08:47:55.265Z,22.9047
2019-03-29T08:47:57.272Z,23.6409
2019-03-29T08:47:59.272Z,24.4153
2019-03-29T08:48:02.204Z,24.3758
2019-03-29T08:48:06.721Z,24.8632
2019-03-29T08:48:08.259Z,23.6583
2019-03-29T08:48:09.265Z,23.4382
2019-03-29T08:48:11.273Z,23.3686
2019-03-29T08:48:13.246Z,22.8808
2019-03-29T08:48:15.270Z,22.9214
2019-03-29T08:48:18.309Z,22.6653
2019-03-29T08:48:20.270Z,22.7011
2019-03-29T08:48:22.275Z,22.8455
2019-03-29T08:48:24.268Z,23.2010
2019-03-29T08:48:27.249Z,23.8220
2019-03-29T08:48:29.263Z,24.9861
2019-03-29T08:48:31.246Z,25.3999
2019-03-29T08:48:34.276Z,25.4142
2019-03-29T08:48:36.307Z,25.0589
2019-03-29T08:48:38.303Z,24.6631
2019-03-29T08:48:41.276Z,24.2041
2019-03-29T08:48:43.249Z,23.8698
2019-03-29T08:48:45.291Z,23.9302
2019-03-29T08:48:47.282Z,23.8703
2019-03-29T08:48:50.329Z,23.8039
2019-03-29T08:48:52.272Z,23.9504
2019-03-29T08:48:54.275Z,24.3582
2019-03-29T08:48:57.267Z,24.4982
2019-03-29T08:48:59.268Z,24.5408
2019-03-29T08:49:01.264Z,24.6452
2019-03-29T08:49:04.262Z,24.6605
2019-03-29T08:49:06.254Z,24.6375
2019-03-29T08:49:08.292Z,24.7226
2019-03-29T08:49:10.261Z,24.5308
2019-03-29T08:49:16.548Z,24.1450
2019-03-29T08:49:18.279Z,23.7422
2019-03-29T08:49:20.263Z,23.8717
2019-03-29T08:49:22.269Z,24.2779
2019-03-29T08:49:24.267Z,25.0046
2019-03-29T08:49:27.256Z,25.6534
2019-03-29T08:49:29.259Z,26.1914
2019-03-29T08:49:31.252Z,26.3838
2019-03-29T08:49:33.403Z,26.4659
2019-03-29T08:49:36.253Z,26.8749
2019-03-29T08:49:38.268Z,27.7164
2019-03-29T08:49:40.415Z,27.8328
2019-03-29T08:49:43.303Z,27.3353
2019-03-29T08:49:45.346Z,25.8864
2019-03-29T08:49:47.327Z,25.3883
2019-03-29T08:49:50.271Z,25.2331
2019-03-29T08:49:52.305Z,25.4603
2019-03-29T08:49:54.354Z,25.4895
2019-03-29T08:49:56.296Z,25.8222
2019-03-29T08:49:59.292Z,25.7350
2019-03-29T08:50:01.288Z,25.8044
2019-03-29T08:50:03.338Z,25.8765
2019-03-29T08:50:06.272Z,25.4036
2019-03-29T08:50:08.311Z,24.9963
2019-03-29T08:50:10.340Z,24.9432
2019-03-29T08:50:13.230Z,24.6840
2019-03-29T08:50:14.555Z,25.1228
2019-03-29T08:50:17.268Z,25.3450
2019-03-29T08:50:19.256Z,25.4934
2019-03-29T08:50:22.269Z,25.6212
2019-03-29T08:50:24.376Z,25.8242
2019-03-29T08:50:26.250Z,25.3730
2019-03-29T08:50:29.253Z,24.9088
2019-03-29T08:50:31.284Z,24.2917
2019-03-29T08:50:33.280Z,23.9630
2019-03-29T08:50:35.274Z,24.0232
2019-03-29T08:50:38.307Z,24.4406
2019-03-29T08:50:40.269Z,25.0921
2019-03-29T08:50:42.277Z,25.1895
2019-03-29T08:50:45.268Z,25.0000
2019-03-29T08:50:47.268Z,24.5934
2019-03-29T08:50:49.264Z,24.5355
2019-03-29T08:50:52.258Z,24.8694
2019-03-29T08:50:55.032Z,24.9768
2019-03-29T08:50:56.292Z,25.2122
2019-03-29T08:50:58.265Z,25.4498
2019-03-29T08:51:01.252Z,25.7258
2019-03-29T08:51:03.277Z,25.9463
2019-03-29T08:51:05.269Z,26.3773
2019-03-29T08:51:08.262Z,26.6055
2019-03-29T08:51:10.262Z,26.4688
2019-03-29T08:51:12.262Z,25.8821
2019-03-29T08:51:15.347Z,25.4178
2019-03-29T08:51:17.256Z,25.4456
2019-03-29T08:51:19.257Z,25.0292
2019-03-29T08:51:21.258Z,24.6557
2019-03-29T08:51:24.356Z,24.3655
2019-03-29T08:51:26.257Z,23.8522
2019-03-29T08:51:28.261Z,23.9637
2019-03-29T08:51:31.258Z,24.3020
2019-03-29T08:51:33.260Z,25.1883
2019-03-29T08:51:35.255Z,25.3825
2019-03-29T08:51:41.298Z,25.4590
2019-03-29T08:51:43.263Z,25.5517
2019-03-29T08:51:44.299Z,25.5375
2019-03-29T08:51:47.256Z,25.5339
2019-03-29T08:51:49.262Z,25.0910
2019-03-29T08:51:51.268Z,25.0175
2019-03-29T08:51:54.246Z,25.0506
2019-03-29T08:51:56.249Z,25.6681
2019-03-29T08:51:58.286Z,25.6392
2019-03-29T08:52:01.258Z,25.5596
2019-03-29T08:52:03.286Z,25.7599
2019-03-29T08:52:05.297Z,26.1980
2019-03-29T08:52:07.249Z,26.1969
2019-03-29T08:52:10.299Z,25.9174
2019-03-29T08:52:12.269Z,25.8347
2019-03-29T08:52:14.269Z,26.0141
2019-03-29T08:52:17.267Z,26.6925
2019-03-29T08:52:19.261Z,26.8440
2019-03-29T08:52:21.260Z,26.9121
2019-03-29T08:52:24.262Z,26.9249
2019-03-29T08:52:26.264Z,26.3692
2019-03-29T08:52:28.294Z,25.7251
2019-03-29T08:52:30.255Z,24.8908
2019-03-29T08:52:33.249Z,24.0771
2019-03-29T08:52:35.283Z,23.1232
2019-03-29T08:52:37.287Z,23.0679
2019-03-29T08:52:40.277Z,23.0010
2019-03-29T08:52:42.269Z,22.5945
2019-03-29T08:52:44.263Z,22.2867
2019-03-29T08:52:47.277Z,21.8603
2019-03-29T08:52:49.269Z,21.3460
2019-03-29T08:52:51.270Z,21.0049
2019-03-29T08:52:53.276Z,20.6356
2019-03-29T08:52:56.299Z,20.2606
2019-03-29T08:52:58.255Z,20.0306
2019-03-29T08:53:00.256Z,20.1497
2019-03-29T08:53:03.283Z,20.3659
2019-03-29T08:53:05.265Z,20.5551
2019-03-29T08:53:07.259Z,20.3823
2019-03-29T08:53:10.254Z,20.1975
2019-03-29T08:53:11.566Z,19.5503
2019-03-29T08:53:14.286Z,19.1438
2019-03-29T08:53:16.418Z,18.5245
2019-03-29T08:53:19.276Z,18.2201
2019-03-29T08:53:21.274Z,17.6507
2019-03-29T08:53:23.261Z,17.1057
2019-03-29T08:53:27.603Z,16.8902
2019-03-29T08:53:29.290Z,17.1373
2019-03-29T08:53:30.277Z,17.7842
2019-03-29T08:53:32.259Z,17.7842
2019-03-29T08:53:35.274Z,18.3699
2019-03-29T08:53:37.271Z,19.2056
2019-03-29T08:53:39.274Z,19.7467
2019-03-29T08:53:42.282Z,20.1495
2019-03-29T08:53:44.271Z,20.5492
2019-03-29T08:53:46.282Z,20.4946
2019-03-29T08:53:49.256Z,20.4686
2019-03-29T08:53:51.249Z,20.1871
2019-03-29T08:53:53.257Z,20.1206
2019-03-29T08:53:55.256Z,19.9965
2019-03-29T08:53:58.255Z,19.6686
2019-03-29T08:54:00.253Z,19.9348
2019-03-29T08:54:02.287Z,19.9348
2019-03-29T08:54:05.271Z,21.0280
2019-03-29T08:54:07.275Z,21.2502
2019-03-29T08:54:09.257Z,21.3560
2019-03-29T08:54:12.271Z,21.7746
2019-03-29T08:54:14.271Z,21.9480
2019-03-29T08:54:16.260Z,22.1972
2019-03-29T08:54:18.248Z,22.2154
2019-03-29T08:54:21.278Z,22.3855
2019-03-29T08:54:23.281Z,21.9309
2019-03-29T08:54:25.257Z,21.6545
2019-03-29T08:54:28.313Z,21.7143
2019-03-29T08:54:30.257Z,21.9559
2019-03-29T08:54:32.248Z,22.2329
2019-03-29T08:54:34.278Z,22.6386
2019-03-29T08:54:37.264Z,23.0698
2019-03-29T08:54:39.255Z,23.3674
2019-03-29T08:54:41.273Z,23.4524
2019-03-29T08:54:44.255Z,23.0000
2019-03-29T08:54:46.278Z,22.7096
2019-03-29T08:54:51.105Z,22.5105
2019-03-29T08:54:52.270Z,22.2183
2019-03-29T08:54:53.256Z,22.2449
2019-03-29T08:54:55.261Z,22.3598
2019-03-29T08:54:57.254Z,22.6699
2019-03-29T08:55:00.416Z,22.8878
2019-03-29T08:55:02.287Z,23.3491
2019-03-29T08:55:04.278Z,23.5593
2019-03-29T08:55:07.271Z,23.8377
2019-03-29T08:55:09.260Z,23.9788
2019-03-29T08:55:11.261Z,23.9672
2019-03-29T08:55:17.266Z,23.8355
2019-03-29T08:55:19.274Z,22.7511
2019-03-29T08:55:20.315Z,22.2527
2019-03-29T08:55:23.268Z,22.1011
2019-03-29T08:55:25.259Z,21.6922
2019-03-29T08:55:27.286Z,21.5059
2019-03-29T08:55:30.283Z,21.4628
2019-03-29T08:55:45.008Z,21.8540
2019-03-29T08:55:45.660Z,23.2255
2019-03-29T08:55:46.549Z,23.4488
2019-03-29T08:55:48.260Z,23.7867
2019-03-29T08:55:49.269Z,24.3936
2019-03-29T08:55:50.266Z,24.8007
2019-03-29T08:55:53.260Z,25.0404
2019-03-29T08:55:55.251Z,25.9145
2019-03-29T08:55:57.275Z,26.2529
2019-03-29T08:55:59.277Z,26.2443
2019-03-29T08:56:02.277Z,25.8613
2019-03-29T08:56:04.266Z,25.6303
2019-03-29T08:56:06.279Z,25.3710
2019-03-29T08:56:09.269Z,25.5399
2019-03-29T08:56:11.279Z,25.2331
2019-03-29T08:56:13.267Z,24.9950
2019-03-29T08:56:16.267Z,24.3391
2019-03-29T08:56:18.274Z,23.1593
2019-03-29T08:56:20.306Z,22.6603
2019-03-29T08:56:22.275Z,22.1260
2019-03-29T08:56:25.273Z,22.0975
2019-03-29T08:56:27.261Z,22.6430
2019-03-29T08:56:29.293Z,23.1250
2019-03-29T08:56:32.257Z,23.4612
2019-03-29T08:56:34.273Z,23.4144
2019-03-29T08:56:36.267Z,23.5749
2019-03-29T08:56:38.285Z,23.6941
2019-03-29T08:56:41.933Z,23.7829
2019-03-29T08:56:43.278Z,23.5813
2019-03-29T08:56:45.324Z,23.6065
2019-03-29T08:56:48.259Z,23.6065
2019-03-29T08:56:50.262Z,23.3355
2019-03-29T08:56:52.270Z,22.9215
2019-03-29T08:56:55.324Z,22.6862
2019-03-29T08:56:57.279Z,22.0525
2019-03-29T08:56:59.299Z,22.0389
2019-03-29T08:57:01.261Z,21.7725
2019-03-29T08:57:04.248Z,21.6671
2019-03-29T08:57:06.276Z,21.7686
2019-03-29T08:57:10.614Z,21.8840
2019-03-29T08:57:12.244Z,22.2807
2019-03-29T08:57:13.260Z,22.1632
2019-03-29T08:57:15.238Z,22.2096
2019-03-29T08:57:18.258Z,22.5819
2019-03-29T08:57:19.566Z,23.1619
2019-03-29T08:57:21.854Z,23.0245
2019-03-29T08:57:24.263Z,22.3902
2019-03-29T08:57:27.252Z,21.7967
2019-03-29T08:57:29.241Z,21.9207
2019-03-29T08:57:31.269Z,22.3694
2019-03-29T08:57:34.271Z,22.2785
2019-03-29T08:57:36.273Z,22.1255
2019-03-29T08:58:06.532Z,0.0000
2019-03-29T08:58:08.302Z,24.2667
2019-03-29T08:58:09.271Z,24.1771
2019-03-29T08:58:11.283Z,24.1177
2019-03-29T08:58:13.256Z,23.6926
2019-03-29T08:58:15.266Z,23.1380
2019-03-29T08:58:18.282Z,23.1723
2019-03-29T08:58:20.285Z,22.7028
2019-03-29T08:58:22.264Z,22.5683
2019-03-29T08:58:25.259Z,21.9085
2019-03-29T08:58:26.556Z,21.0290
2019-03-29T08:58:29.241Z,21.1778
2019-03-29T08:58:31.297Z,21.8618
2019-03-29T08:58:34.245Z,21.8826
2019-03-29T08:58:36.237Z,22.3506
2019-03-29T08:58:38.255Z,23.2238
2019-03-29T08:58:41.260Z,23.7622
2019-03-29T08:58:46.336Z,24.7775
2019-03-29T08:59:17.663Z,0.0000
2019-03-29T08:59:19.262Z,19.8123
2019-03-29T08:59:20.272Z,19.9950
2019-03-29T08:59:23.271Z,20.2588
2019-03-29T08:59:25.260Z,21.7391
2019-03-29T08:59:27.256Z,22.8607
2019-03-29T08:59:30.230Z,23.7536
2019-03-29T08:59:31.560Z,24.8112
2019-03-29T08:59:34.331Z,25.3784
2019-03-29T08:59:36.513Z,25.8903
2019-03-29T08:59:39.289Z,26.7859
2019-03-29T08:59:41.277Z,26.9419
2019-03-29T08:59:43.269Z,26.7481
2019-03-29T08:59:46.261Z,26.7330
2019-03-29T08:59:48.341Z,25.9995
2019-03-29T08:59:50.255Z,25.1911
2019-03-29T08:59:52.254Z,24.8167
2019-03-29T08:59:55.258Z,24.7311
2019-03-29T08:59:57.276Z,24.1779
2019-03-29T08:59:59.268Z,23.4126
2019-03-29T09:00:02.272Z,22.9729
2019-03-29T09:00:04.255Z,22.2745
2019-03-29T09:00:06.260Z,22.1398
2019-03-29T09:00:09.282Z,21.8555
2019-03-29T09:00:11.282Z,22.0131
2019-03-29T09:00:15.885Z,22.2765
2019-03-29T09:00:17.280Z,22.2777
2019-03-29T09:00:18.250Z,22.3129
2019-03-29T09:00:20.260Z,22.5394
2019-03-29T09:00:22.323Z,22.8071
2019-03-29T09:00:25.267Z,22.5910
2019-03-29T09:00:27.329Z,21.9583
2019-03-29T09:00:29.291Z,21.8706
2019-03-29T09:00:31.281Z,21.8179
2019-03-29T09:00:34.496Z,21.8179
2019-03-29T09:00:36.249Z,22.9410
2019-03-29T09:00:38.267Z,23.3421
2019-03-29T09:00:41.265Z,23.3001
2019-03-29T09:00:43.257Z,23.8570
2019-03-29T09:00:45.258Z,24.2629
2019-03-29T09:00:48.332Z,24.7925
2019-03-29T09:00:50.298Z,24.8464
2019-03-29T09:00:52.259Z,25.0445
2019-03-29T09:00:54.273Z,25.0536
2019-03-29T09:00:57.237Z,0.0000
2019-03-29T09:01:28.580Z,0.0000
2019-03-29T09:01:30.258Z,29.3449
2019-03-29T09:01:31.327Z,29.0393
2019-03-29T09:01:32.272Z,28.6066
2019-03-29T09:01:35.234Z,28.3385
2019-03-29T09:01:36.555Z,27.4722
2019-03-29T09:01:39.281Z,26.9251
2019-03-29T09:01:41.294Z,26.3027
2019-03-29T09:01:44.288Z,25.6845
2019-03-29T09:01:46.997Z,25.1743
2019-03-29T09:01:48.336Z,24.9017
2019-03-29T09:01:51.382Z,25.0345
2019-03-29T09:01:53.279Z,25.4804
2019-03-29T09:01:55.317Z,25.7615
2019-03-29T09:01:57.307Z,26.4942
2019-03-29T09:02:00.286Z,27.3498
2019-03-29T09:02:02.273Z,27.9975
2019-03-29T09:02:04.297Z,27.9179
2019-03-29T09:02:07.285Z,27.9564
2019-03-29T09:02:09.297Z,28.5053
2019-03-29T09:02:11.276Z,28.5192
2019-03-29T09:02:14.312Z,28.3632
2019-03-29T09:02:16.267Z,28.2415
2019-03-29T09:02:18.291Z,27.7687
2019-03-29T09:02:20.264Z,27.4588
2019-03-29T09:02:25.024Z,26.8254
2019-03-29T09:02:26.273Z,25.4500
2019-03-29T09:02:27.259Z,25.4197
2019-03-29T09:02:30.283Z,25.2989
2019-03-29T09:02:32.295Z,24.7503
2019-03-29T09:02:34.270Z,24.7503
2019-03-29T09:02:37.278Z,24.0443
2019-03-29T09:02:39.300Z,23.6392
2019-03-29T09:02:41.531Z,23.4791
2019-03-29T09:02:43.269Z,23.3389
2019-03-29T09:02:46.342Z,22.9328
2019-03-29T09:02:48.273Z,21.9494
2019-03-29T09:02:50.269Z,21.5076
2019-03-29T09:02:53.259Z,21.1904
2019-03-29T09:02:55.258Z,21.4675
2019-03-29T09:02:57.260Z,21.6905
2019-03-29T09:03:28.493Z,0.0000
2019-03-29T09:03:30.285Z,22.7812
2019-03-29T09:03:31.273Z,23.2153
2019-03-29T09:03:33.261Z,23.4186
2019-03-29T09:03:35.269Z,23.7226
2019-03-29T09:03:37.297Z,23.9021
2019-03-29T09:03:40.259Z,23.8545
2019-03-29T09:03:42.255Z,23.6678
2019-03-29T09:03:44.260Z,23.9102
2019-03-29T09:04:02.778Z,24.1468
2019-03-29T09:04:04.811Z,23.8538
2019-03-29T09:04:05.458Z,21.7462
2019-03-29T09:04:07.256Z,22.2121
2019-03-29T09:04:08.398Z,22.6150
2019-03-29T09:04:10.393Z,23.0837
2019-03-29T09:04:12.268Z,23.5629
2019-03-29T09:04:14.321Z,23.9969
2019-03-29T09:04:16.274Z,24.7140
2019-03-29T09:04:21.669Z,25.1083
2019-03-29T09:04:23.263Z,25.7147
2019-03-29T09:04:24.266Z,25.7982
2019-03-29T09:04:26.383Z,25.6079
2019-03-29T09:05:05.457Z,0.0000
2019-03-29T09:05:06.261Z,24.6988
2019-03-29T09:05:07.265Z,24.9283
2019-03-29T09:05:09.257Z,25.2861
2019-03-29T09:05:12.270Z,26.0894
2019-03-29T09:05:14.254Z,27.0636
2019-03-29T09:05:16.254Z,27.3157
2019-03-29T09:05:18.252Z,27.2984
2019-03-29T09:05:21.258Z,27.4412
2019-03-29T09:05:23.255Z,26.8484
2019-03-29T09:05:25.248Z,26.1133
2019-03-29T09:05:28.266Z,26.0376
2019-03-29T09:05:30.239Z,25.0776
2019-03-29T09:05:53.254Z,24.1884
2019-03-29T09:05:54.260Z,23.0420
2019-03-29T09:05:55.279Z,23.2034
2019-03-29T09:05:58.255Z,23.1021
2019-03-29T09:06:00.241Z,23.2126
2019-03-29T09:06:02.254Z,23.1786
2019-03-29T09:06:04.340Z,23.1423
2019-03-29T09:06:07.258Z,22.9811
2019-03-29T09:06:09.242Z,23.0955
2019-03-29T09:06:11.257Z,23.0557
2019-03-29T09:06:14.254Z,23.0728
2019-03-29T09:06:16.251Z,23.2805
2019-03-29T09:06:18.259Z,23.1160
2019-03-29T09:06:21.232Z,23.2291
2019-03-29T09:06:22.545Z,22.6966
2019-03-29T09:06:25.242Z,22.4541
2019-03-29T09:06:29.959Z,21.7955
2019-03-29T09:06:31.243Z,21.7539
2019-03-29T09:06:32.263Z,21.8846
2019-03-29T09:06:34.261Z,21.9822
2019-03-29T09:06:37.263Z,22.2355
2019-03-29T09:06:52.399Z,22.0524
2019-03-29T09:06:53.146Z,20.6209
2019-03-29T09:06:54.286Z,20.0198
2019-03-29T09:06:55.322Z,19.9053
2019-03-29T09:06:57.269Z,19.9053
2019-03-29T09:07:00.241Z,19.8927
2019-03-29T09:07:02.251Z,19.8581
2019-03-29T09:07:04.257Z,20.0015
2019-03-29T09:07:06.243Z,19.7646
2019-03-29T09:07:09.234Z,19.6852
2019-03-29T09:07:11.235Z,19.9125
2019-03-29T09:07:13.239Z,20.1422
2019-03-29T09:07:16.240Z,20.4543
2019-03-29T09:07:18.256Z,20.2443
2019-03-29T09:07:20.258Z,20.1095
2019-03-29T09:07:23.265Z,20.0242
2019-03-29T09:07:27.918Z,19.5462
2019-03-29T09:07:29.278Z,18.6755
2019-03-29T09:07:43.613Z,18.6835
2019-03-29T09:07:44.523Z,19.5431
2019-03-29T09:07:45.325Z,19.6181
2019-03-29T09:07:47.246Z,18.5803
2019-03-29T09:07:48.000Z,18.0287
2019-03-29T09:07:50.246Z,17.7189
2019-03-29T09:07:52.237Z,17.2554
2019-03-29T09:07:55.235Z,17.0664
2019-03-29T09:07:57.262Z,18.0448
2019-03-29T09:07:59.258Z,18.7055
2019-03-29T09:08:02.259Z,19.1513
2019-03-29T09:08:04.250Z,19.5556
2019-03-29T09:08:06.280Z,19.7683
2019-03-29T09:08:09.248Z,19.7738
2019-03-29T09:08:11.266Z,19.3463
2019-03-29T09:08:13.258Z,19.1135
2019-03-29T09:08:15.243Z,19.0309
2019-03-29T09:08:18.261Z,18.7550
2019-03-29T09:08:20.256Z,18.4885
2019-03-29T09:08:22.243Z,18.5231
2019-03-29T09:08:25.243Z,18.8994
2019-03-29T09:08:27.270Z,19.6034
2019-03-29T09:08:29.247Z,19.6057
2019-03-29T09:08:32.232Z,19.5743
2019-03-29T09:08:34.246Z,19.7876
2019-03-29T09:08:36.266Z,19.9463
2019-03-29T09:08:38.263Z,20.2402
2019-03-29T09:08:41.273Z,20.2863
2019-03-29T09:08:43.250Z,20.4308
2019-03-29T09:08:45.256Z,20.4837
2019-03-29T09:08:48.248Z,20.5286
2019-03-29T09:08:50.248Z,20.2008
2019-03-29T09:08:52.247Z,20.1176
2019-03-29T09:08:55.225Z,20.0537
2019-03-29T09:08:56.533Z,20.3068
2019-03-29T09:08:59.252Z,20.6225
2019-03-29T09:09:01.257Z,21.3510
2019-03-29T09:09:04.247Z,21.6150
2019-03-29T09:09:06.253Z,21.4484
2019-03-29T09:09:08.243Z,21.6325
2019-03-29T09:09:12.134Z,21.9121
2019-03-29T09:09:13.297Z,21.8815
2019-03-29T09:09:15.267Z,21.9203
2019-03-29T09:09:17.252Z,21.9631
2019-03-29T09:09:20.258Z,22.0016
2019-03-29T09:09:22.241Z,21.3882
2019-03-29T09:09:24.244Z,20.8997
2019-03-29T09:09:27.235Z,20.4275
2019-03-29T09:09:29.238Z,19.4975
2019-03-29T09:09:31.234Z,19.0373
2019-03-29T09:09:34.258Z,18.4388
2019-03-29T09:09:36.250Z,17.6378
2019-03-29T09:09:38.255Z,17.4044
2019-03-29T09:09:40.248Z,17.1609
2019-03-29T09:09:46.225Z,17.2793
2019-03-29T09:09:48.254Z,17.5314
2019-03-29T09:09:50.249Z,17.4552
2019-03-29T09:09:52.237Z,17.4555
2019-03-29T09:09:54.382Z,17.7657
2019-03-29T09:09:57.240Z,17.9407
2019-03-29T09:09:58.550Z,17.7040
2019-03-29T09:10:01.254Z,17.5800
2019-03-29T09:10:03.235Z,17.6663
2019-03-29T09:10:06.269Z,17.8027
2019-03-29T09:10:08.251Z,18.5321
2019-03-29T09:10:10.248Z,18.8826
2019-03-29T09:10:13.238Z,19.2859
2019-03-29T09:10:15.250Z,19.1849
2019-03-29T09:10:17.252Z,18.7901
2019-03-29T09:10:19.250Z,18.3286
2019-03-29T09:10:22.243Z,18.3349
2019-03-29T09:10:24.233Z,18.5170
2019-03-29T09:10:26.262Z,19.1545
2019-03-29T09:10:29.247Z,19.7361
2019-03-29T09:10:31.248Z,20.1453
2019-03-29T09:10:33.278Z,20.7057
2019-03-29T09:10:36.287Z,20.5685
2019-03-29T09:10:38.240Z,20.3312
2019-03-29T09:10:40.239Z,20.1046
2019-03-29T09:10:42.272Z,19.9377
2019-03-29T09:10:45.251Z,20.4997
2019-03-29T09:10:47.245Z,21.1795
2019-03-29T09:10:49.232Z,21.6699
2019-03-29T09:10:52.257Z,21.9921
2019-03-29T09:10:54.248Z,21.8247
2019-03-29T09:10:56.255Z,21.5969
2019-03-29T09:10:58.251Z,21.5327
2019-03-29T09:11:01.250Z,21.2949
2019-03-29T09:11:03.250Z,21.4978
2019-03-29T09:11:07.706Z,21.1162
2019-03-29T09:11:09.241Z,19.6755
2019-03-29T09:11:10.272Z,19.5638
2019-03-29T09:11:12.241Z,19.4356
2019-03-29T09:11:15.257Z,19.0941
2019-03-29T09:11:17.249Z,18.4500
2019-03-29T09:11:19.251Z,18.0951
2019-03-29T09:11:21.248Z,18.0008
2019-03-29T09:11:24.277Z,17.5213
2019-03-29T09:11:26.260Z,16.7182
2019-03-29T09:11:28.266Z,16.5265
2019-03-29T09:11:31.249Z,16.7428
2019-03-29T09:11:33.258Z,17.0481
2019-03-29T09:11:38.563Z,17.2985
2019-03-29T09:11:40.244Z,18.7079
2019-03-29T09:11:42.261Z,18.8846
2019-03-29T09:11:44.245Z,19.7719
2019-03-29T09:11:47.245Z,20.1460
2019-03-29T09:11:49.229Z,20.3213
2019-03-29T09:11:51.262Z,20.2437
2019-03-29T09:11:54.269Z,20.2217
2019-03-29T09:11:56.243Z,19.8363
2019-03-29T09:11:58.262Z,19.4873
2019-03-29T09:12:13.466Z,19.2523
2019-03-29T09:12:14.197Z,18.9010
2019-03-29T09:12:15.050Z,19.4650
2019-03-29T09:12:16.260Z,19.6084
2019-03-29T09:12:17.259Z,19.5547
2019-03-29T09:12:19.231Z,19.4737
2019-03-29T09:12:21.263Z,19.5261
2019-03-29T09:12:23.295Z,19.2773
2019-03-29T09:12:26.921Z,18.7972
2019-03-29T09:12:28.251Z,18.2635
2019-03-29T09:12:30.242Z,18.1794
2019-03-29T09:12:33.257Z,17.7582
2019-03-29T09:12:35.265Z,17.5322
2019-03-29T09:12:37.246Z,17.2090
2019-03-29T09:12:39.249Z,16.7143
2019-03-29T09:12:42.237Z,16.4938
2019-03-29T09:12:44.235Z,15.9983
2019-03-29T09:12:46.241Z,15.6679
2019-03-29T09:12:49.260Z,15.4889
2019-03-29T09:12:51.259Z,15.4411
2019-03-29T09:12:53.251Z,15.7015
2019-03-29T09:12:56.225Z,15.4960
2019-03-29T09:12:57.535Z,14.6825
2019-03-29T09:13:00.282Z,14.0350
2019-03-29T09:13:04.370Z,13.7257
2019-03-29T09:13:06.258Z,14.2997
2019-03-29T09:13:07.248Z,14.5182
2019-03-29T09:13:09.239Z,14.6026
2019-03-29T09:13:12.250Z,14.8960
2019-03-29T09:13:14.262Z,15.6178
2019-03-29T09:13:16.258Z,16.3178
2019-03-29T09:13:18.255Z,17.1713
2019-03-29T09:13:21.261Z,17.9669
2019-03-29T09:13:23.260Z,18.8071
2019-03-29T09:13:25.244Z,19.0189
2019-03-29T09:13:28.241Z,18.6819
2019-03-29T09:13:30.263Z,18.4477
2019-03-29T09:13:32.249Z,18.5856
2019-03-29T09:13:35.258Z,18.8711
2019-03-29T09:13:37.247Z,19.1596
2019-03-29T09:13:39.242Z,19.2841
2019-03-29T09:13:41.240Z,19.5677
2019-03-29T09:13:44.253Z,19.9028
2019-03-29T09:13:46.255Z,19.9028
2019-03-29T09:13:48.245Z,20.4506
2019-03-29T09:13:51.240Z,19.9392
2019-03-29T09:13:53.251Z,19.6051
2019-03-29T09:13:55.232Z,19.2759
2019-03-29T09:13:57.343Z,18.8921
2019-03-29T09:14:00.258Z,18.4657
2019-03-29T09:14:02.244Z,17.7286
2019-03-29T09:14:04.247Z,17.4529
2019-03-29T09:14:07.239Z,16.8220
2019-03-29T09:14:09.235Z,16.2570
2019-03-29T09:14:11.234Z,16.7502
2019-03-29T09:14:14.257Z,17.1134
2019-03-29T09:14:16.243Z,17.7069
2019-03-29T09:14:18.246Z,17.8934
2019-03-29T09:14:20.243Z,17.9921
2019-03-29T09:14:23.242Z,17.8827
2019-03-29T09:14:25.247Z,17.3362
2019-03-29T09:14:27.254Z,17.2446
2019-03-29T09:14:31.559Z,17.3643
2019-03-29T09:14:33.241Z,18.2385
2019-03-29T09:14:34.246Z,18.3558
2019-03-29T09:14:37.261Z,18.4779
2019-03-29T09:14:39.268Z,19.0757
2019-03-29T09:14:41.275Z,19.2260
2019-03-29T09:14:43.256Z,18.8065
2019-03-29T09:14:46.262Z,18.7699
2019-03-29T09:14:48.251Z,18.2570
2019-03-29T09:14:50.300Z,17.8034
2019-03-29T09:14:53.237Z,17.2427
2019-03-29T09:14:55.244Z,17.0477
2019-03-29T09:14:57.262Z,17.2492
2019-03-29T09:15:03.471Z,17.4862
2019-03-29T09:15:05.266Z,18.4388
2019-03-29T09:15:06.238Z,18.7417
2019-03-29T09:15:09.231Z,18.9576
2019-03-29T09:15:11.254Z,19.0365
2019-03-29T09:15:13.252Z,19.4060
2019-03-29T09:15:16.253Z,19.9828
2019-03-29T09:15:18.254Z,20.3059
2019-03-29T09:15:20.257Z,20.4132
2019-03-29T09:15:22.269Z,20.1694
2019-03-29T09:15:25.441Z,19.7035
2019-03-29T09:15:27.270Z,19.3285
2019-03-29T09:15:29.241Z,19.2630
2019-03-29T09:15:32.238Z,19.2322
2019-03-29T09:15:34.247Z,19.0731
2019-03-29T09:15:36.275Z,19.0986
2019-03-29T09:15:39.261Z,18.9234
2019-03-29T09:15:41.321Z,18.5059
2019-03-29T09:15:43.259Z,18.1512
2019-03-29T09:15:45.249Z,17.8660
2019-03-29T09:15:48.260Z,17.4035
2019-03-29T09:15:50.245Z,16.4439
2019-03-29T09:15:52.238Z,15.5657
2019-03-29T09:15:55.236Z,15.2073
2019-03-29T09:15:57.264Z,15.5384
2019-03-29T09:15:59.259Z,15.6414
2019-03-29T09:16:02.251Z,15.4823
2019-03-29T09:16:03.547Z,15.9569
2019-03-29T09:16:06.246Z,15.8740
2019-03-29T09:16:08.256Z,15.8262
2019-03-29T09:16:11.260Z,16.1726
2019-03-29T09:16:13.377Z,16.7607
2019-03-29T09:16:15.237Z,17.0498
2019-03-29T09:16:18.239Z,17.1947
2019-03-29T09:16:20.235Z,17.9884
2019-03-29T09:16:22.241Z,18.5479
2019-03-29T09:16:24.259Z,18.8788
2019-03-29T09:16:27.250Z,19.0703
2019-03-29T09:16:29.261Z,19.6982
2019-03-29T09:16:31.243Z,19.6982
2019-03-29T09:16:34.242Z,19.4536
2019-03-29T09:16:36.235Z,19.2477
2019-03-29T09:16:38.246Z,19.1773
2019-03-29T09:16:41.280Z,18.8188
2019-03-29T09:16:43.250Z,17.7845
2019-03-29T09:16:45.243Z,17.6056
2019-03-29T09:16:47.247Z,17.8876
2019-03-29T09:16:50.236Z,17.8817
2019-03-29T09:16:52.283Z,18.1523
2019-03-29T09:16:54.267Z,18.7229
2019-03-29T09:16:57.244Z,19.4226
2019-03-29T09:16:59.244Z,20.2688
2019-03-29T09:17:01.241Z,20.2088
2019-03-29T09:17:03.274Z,20.2096
2019-03-29T09:17:06.259Z,20.2407
2019-03-29T09:17:08.247Z,20.3288
2019-03-29T09:17:10.254Z,20.4633
2019-03-29T09:17:13.252Z,21.1020
2019-03-29T09:17:15.242Z,21.9787
2019-03-29T09:17:17.267Z,22.5083
2019-03-29T09:17:20.254Z,22.8886
2019-03-29T09:17:22.250Z,22.2611
2019-03-29T09:17:24.247Z,22.1753
2019-03-29T09:17:26.297Z,21.7644
2019-03-29T09:17:29.242Z,21.3308
2019-03-29T09:17:31.236Z,20.5285
2019-03-29T09:17:33.258Z,20.0336
2019-03-29T09:17:36.253Z,19.8421
2019-03-29T09:17:38.269Z,20.4232
2019-03-29T09:17:40.245Z,20.5389
2019-03-29T09:17:43.252Z,20.4540
2019-03-29T09:17:45.241Z,20.6178
2019-03-29T09:17:47.237Z,20.5008
2019-03-29T09:17:49.232Z,20.4115
2019-03-29T09:17:52.262Z,20.3241
2019-03-29T09:17:54.252Z,20.3441
2019-03-29T09:17:59.684Z,20.3883
2019-03-29T09:18:01.254Z,20.6761
2019-03-29T09:18:03.248Z,20.7163
2019-03-29T09:18:06.271Z,20.9320
2019-03-29T09:18:07.577Z,21.7301
2019-03-29T09:18:09.845Z,21.7763
2019-03-29T09:18:12.279Z,21.3812
2019-03-29T09:18:15.274Z,21.0219
2019-03-29T09:18:17.256Z,20.6544
2019-03-29T09:18:19.250Z,20.6544
2019-03-29T09:18:25.653Z,20.2732
2019-03-29T09:18:27.310Z,18.5898
2019-03-29T09:18:28.255Z,18.2551
2019-03-29T09:18:31.238Z,17.9068
2019-03-29T09:18:33.260Z,17.0880
2019-03-29T09:18:35.250Z,17.0018
2019-03-29T09:18:38.247Z,16.8795
2019-03-29T09:18:40.242Z,16.9804
2019-03-29T09:18:42.242Z,17.1452
2019-03-29T09:18:45.251Z,17.1008
2019-03-29T09:18:47.251Z,18.2986
2019-03-29T09:18:49.265Z,18.9544
2019-03-29T09:18:51.260Z,18.9852
2019-03-29T09:18:54.248Z,19.0050
2019-03-29T09:18:56.241Z,18.6786
2019-03-29T09:18:58.238Z,18.3294
2019-03-29T09:19:01.236Z,18.0613
2019-03-29T09:19:03.257Z,17.7891
2019-03-29T09:19:05.245Z,17.9895